Time;durP1;ratioP1;P1;durP2;ratioP2;P2;SDS_P1;SDS_P2;PMS_P1;PMS_P2;Temp;Humidity;BMP_temperature;BMP_pressure;BME280_temperature;BME280_humidity;BME280_pressure;Samples;Min_cycle;Max_cycle;Signal;HPM_P1;HPM_P2
2023/03/13 00:01:28;;;;;;;21.87;19.67;;;;;;;2.66;100.00;96634.28;5035164;28;20953;-67
2023/03/13 00:03:56;;;;;;;20.87;18.70;;;;;;;2.66;100.00;96643.91;5036272;28;20207;-68
2023/03/13 00:06:24;;;;;;;21.27;18.97;;;;;;;2.66;100.00;96638.66;5008170;28;20227;-67
2023/03/13 00:08:52;;;;;;;20.60;18.57;;;;;;;2.58;100.00;96626.31;5041592;28;20222;-69
2023/03/13 00:11:20;;;;;;;21.37;19.30;;;;;;;2.65;100.00;96635.25;5053592;28;20387;-67
2023/03/13 00:13:49;;;;;;;25.37;19.87;;;;;;;2.65;100.00;96632.63;5029731;28;20232;-68
2023/03/13 00:16:16;;;;;;;22.40;19.30;;;;;;;2.71;100.00;96623.34;5032687;28;20236;-68
2023/03/13 00:18:45;;;;;;;21.47;19.07;;;;;;;2.64;100.00;96617.06;5057995;28;20506;-68
2023/03/13 00:21:13;;;;;;;23.33;18.30;;;;;;;2.68;100.00;96613.19;5053472;28;20287;-68
2023/03/13 00:23:41;;;;;;;21.40;18.77;;;;;;;2.70;100.00;96614.69;5006193;28;20210;-68
2023/03/13 00:26:10;;;;;;;20.83;18.73;;;;;;;2.69;100.00;96605.19;5033910;28;20847;-68
2023/03/13 00:28:39;;;;;;;19.60;17.50;;;;;;;2.73;100.00;96603.09;5032315;28;20218;-67
2023/03/13 00:31:09;;;;;;;21.03;18.80;;;;;;;2.69;100.00;96606.97;5030478;28;20237;-67
2023/03/13 00:33:38;;;;;;;19.40;17.43;;;;;;;2.68;100.00;96593.09;5054492;28;20516;-67
2023/03/13 00:36:08;;;;;;;21.33;18.67;;;;;;;2.80;100.00;96609.38;5052076;28;20249;-67
2023/03/13 00:38:36;;;;;;;19.97;17.87;;;;;;;2.85;100.00;96606.31;5013692;28;20210;-68
2023/03/13 00:41:05;;;;;;;22.53;19.17;;;;;;;2.88;100.00;96601.63;5041960;28;20948;-68
2023/03/13 00:43:33;;;;;;;20.97;18.77;;;;;;;2.86;100.00;96600.94;5037949;28;20222;-67
2023/03/13 00:46:01;;;;;;;20.10;17.87;;;;;;;2.86;100.00;96594.88;5033152;28;21788;-67
2023/03/13 00:48:32;;;;;;;20.17;17.93;;;;;;;2.83;100.00;96584.72;5061369;28;20232;-67
2023/03/13 00:51:00;;;;;;;22.77;17.93;;;;;;;2.84;100.00;96586.34;5053953;28;20452;-68
2023/03/13 00:53:27;;;;;;;18.50;16.50;;;;;;;2.83;100.00;96585.50;5007838;28;20221;-66
2023/03/13 00:55:56;;;;;;;18.83;16.83;;;;;;;2.84;100.00;96575.88;5041953;28;20234;-68
2023/03/13 00:58:25;;;;;;;19.10;16.83;;;;;;;2.90;100.00;96572.66;5036505;28;20602;-67
2023/03/13 01:00:53;;;;;;;21.57;16.13;;;;;;;2.95;100.00;96574.84;5055798;28;20209;-68
2023/03/13 01:03:24;;;;;;;22.57;17.20;;;;;;;2.98;100.00;96569.31;5037700;28;20221;-68
2023/03/13 01:05:57;;;;;;;20.27;16.87;;;;;;;2.99;100.00;96563.91;5059145;28;20244;-68
2023/03/13 01:08:24;;;;;;;19.40;16.53;;;;;;;3.01;100.00;96548.88;5055599;28;20341;-68
2023/03/13 01:10:58;;;;;;;18.77;16.87;;;;;;;3.06;100.00;96553.66;5011355;28;20210;-68
2023/03/13 01:13:26;;;;;;;19.10;17.10;;;;;;;3.07;100.00;96552.69;5043104;28;20244;-67
2023/03/13 01:15:54;;;;;;;17.87;16.07;;;;;;;3.13;100.00;96546.03;5027326;28;20245;-68
2023/03/13 01:18:22;;;;;;;18.30;16.40;;;;;;;3.12;100.00;96547.81;5039760;28;20205;-68
2023/03/13 01:20:49;;;;;;;18.43;16.03;;;;;;;3.11;100.00;96548.78;5037327;28;20404;-68
2023/03/13 01:23:18;;;;;;;19.83;16.03;;;;;;;3.09;100.00;96544.69;5054537;28;20450;-67
2023/03/13 01:25:46;;;;;;;21.07;16.60;;;;;;;3.13;100.00;96548.66;5010242;28;20225;-67
2023/03/13 01:28:14;;;;;;;17.43;14.67;;;;;;;3.13;100.00;96549.44;5041418;28;20579;-67
2023/03/13 01:30:42;;;;;;;17.13;15.27;;;;;;;3.13;100.00;96549.44;5034951;28;20676;-66
2023/03/13 01:33:10;;;;;;;16.60;14.40;;;;;;;3.10;100.00;96544.53;5056602;28;20263;-67
2023/03/13 01:35:37;;;;;;;17.77;14.17;;;;;;;3.08;100.00;96545.66;5035914;28;20217;-68
2023/03/13 01:38:05;;;;;;;17.13;13.90;;;;;;;3.14;100.00;96552.91;5061276;28;20225;-68
2023/03/13 01:40:40;;;;;;;18.03;15.27;;;;;;;3.13;100.00;96544.22;4985945;28;22264;-68
2023/03/13 01:43:20;;;;;;;16.17;14.47;;;;;;;3.17;100.00;96540.31;5058478;28;20209;-67
2023/03/13 01:45:57;;;;;;;16.87;14.03;;;;;;;3.21;100.00;96545.25;5032811;28;20299;-67
2023/03/13 01:48:29;;;;;;;17.53;15.00;;;;;;;3.23;100.00;96545.94;5051631;28;20222;-68
2023/03/13 01:50:59;;;;;;;16.87;13.97;;;;;;;3.17;100.00;96540.31;5010806;28;20213;-68
2023/03/13 01:53:29;;;;;;;15.97;14.17;;;;;;;3.12;100.00;96532.09;5047990;28;20553;-68
2023/03/13 01:55:59;;;;;;;16.63;14.27;;;;;;;3.23;100.00;96548.56;5009987;28;20970;-68
2023/03/13 01:58:29;;;;;;;15.70;13.90;;;;;;;3.16;100.00;96543.91;5040712;28;20708;-68
2023/03/13 02:00:58;;;;;;;16.23;13.43;;;;;;;3.13;100.00;96538.97;5034659;28;20206;-67
2023/03/13 02:03:26;;;;;;;17.07;13.43;;;;;;;3.13;100.00;96535.56;5052624;28;20850;-68
2023/03/13 02:05:55;;;;;;;15.33;13.73;;;;;;;3.13;100.00;96546.84;5036366;28;20223;-67
2023/03/13 02:08:25;;;;;;;15.77;12.83;;;;;;;3.10;100.00;96547.13;5051104;28;20625;-68
2023/03/13 02:10:58;;;;;;;15.77;14.07;;;;;;;3.11;100.00;96535.69;5031952;28;20476;-68
2023/03/13 02:13:27;;;;;;;15.57;13.63;;;;;;;3.12;100.00;96544.38;4983184;28;20213;-68
2023/03/13 02:15:55;;;;;;;14.47;12.97;;;;;;;3.15;100.00;96536.22;5040476;28;20242;-67
2023/03/13 02:18:24;;;;;;;14.67;13.13;;;;;;;3.12;100.00;96513.78;5030495;28;20206;-68
2023/03/13 02:20:56;;;;;;;14.40;12.90;;;;;;;3.09;100.00;96521.94;5055256;28;20198;-66
2023/03/13 02:23:27;;;;;;;14.80;12.70;;;;;;;3.08;100.00;96517.69;5039060;28;20615;-67
2023/03/13 02:25:56;;;;;;;15.33;13.63;;;;;;;3.10;100.00;96514.91;5063767;28;20646;-66
2023/03/13 02:28:25;;;;;;;15.80;13.47;;;;;;;3.09;100.00;96516.69;5008336;28;20431;-68
2023/03/13 02:30:55;;;;;;;15.00;13.40;;;;;;;3.17;100.00;96515.94;5038675;28;20203;-67
2023/03/13 02:33:26;;;;;;;14.50;13.20;;;;;;;3.15;100.00;96510.84;5035055;28;20371;-66
2023/03/13 02:35:54;;;;;;;16.07;13.30;;;;;;;3.09;100.00;96516.69;5051252;28;20246;-68
2023/03/13 02:38:24;;;;;;;15.07;13.47;;;;;;;3.04;100.00;96525.03;5034246;28;20206;-68
2023/03/13 02:40:53;;;;;;;14.07;12.30;;;;;;;2.92;100.00;96521.00;5056168;28;20581;-68
2023/03/13 02:43:26;;;;;;;14.97;12.40;;;;;;;2.96;100.00;96524.16;5010347;28;20830;-69
2023/03/13 02:46:09;;;;;;;15.17;13.00;;;;;;;2.89;100.00;96527.38;5034681;28;20226;-68
2023/03/13 02:48:38;;;;;;;16.10;13.07;;;;;;;2.91;100.00;96526.41;5037237;28;20519;-68
2023/03/13 02:51:10;;;;;;;16.53;12.80;;;;;;;2.90;100.00;96517.72;5055400;28;20206;-68
2023/03/13 02:53:38;;;;;;;14.97;12.30;;;;;;;2.82;100.00;96504.56;5028150;28;20636;-67
2023/03/13 02:56:07;;;;;;;17.50;12.73;;;;;;;2.89;100.00;96513.44;5054732;28;20834;-68
2023/03/13 02:58:42;;;;;;;14.07;12.63;;;;;;;2.88;100.00;96509.19;5058823;28;20690;-67
2023/03/13 03:01:17;;;;;;;14.73;13.33;;;;;;;2.85;100.00;96512.94;4982473;28;20297;-68
2023/03/13 03:03:45;;;;;;;13.27;11.70;;;;;;;2.90;100.00;96512.47;5037073;28;20739;-67
2023/03/13 03:06:13;;;;;;;16.17;12.73;;;;;;;2.91;100.00;96508.88;5052688;28;20806;-68
2023/03/13 03:08:42;;;;;;;16.47;13.00;;;;;;;2.93;100.00;96501.69;5032261;28;20244;-67
2023/03/13 03:11:10;;;;;;;15.27;12.63;;;;;;;2.98;100.00;96504.69;5052507;28;20210;-68
2023/03/13 03:13:38;;;;;;;17.27;13.57;;;;;;;2.98;100.00;96502.06;5058333;28;20236;-67
2023/03/13 03:16:09;;;;;;;15.50;13.70;;;;;;;3.00;100.00;96501.94;5009889;28;20238;-68
2023/03/13 03:18:37;;;;;;;18.53;13.67;;;;;;;3.06;100.00;96500.50;5036023;28;20816;-67
2023/03/13 03:21:06;;;;;;;18.60;14.00;;;;;;;3.07;100.00;96500.34;5028951;28;20300;-68
2023/03/13 03:23:34;;;;;;;19.60;13.97;;;;;;;3.12;100.00;96498.06;5031340;28;20837;-67
2023/03/13 03:26:03;;;;;;;16.97;14.37;;;;;;;3.15;100.00;96492.53;5049408;28;20265;-68
2023/03/13 03:28:31;;;;;;;14.23;12.83;;;;;;;3.16;100.00;96498.59;5055023;28;20690;-68
2023/03/13 03:31:03;;;;;;;17.27;14.23;;;;;;;3.19;100.00;96500.91;5006784;28;20272;-68
2023/03/13 03:33:32;;;;;;;16.17;13.50;;;;;;;3.20;100.00;96484.22;5033739;28;20709;-67
2023/03/13 03:36:01;;;;;;;14.77;13.27;;;;;;;3.17;100.00;96474.88;5032342;28;20234;-68
2023/03/13 03:38:28;;;;;;;19.47;13.73;;;;;;;3.23;100.00;96486.53;5026946;28;20453;-67
2023/03/13 03:40:56;;;;;;;14.63;13.20;;;;;;;3.16;100.00;96468.00;5056299;28;20202;-67
2023/03/13 03:43:24;;;;;;;16.63;12.53;;;;;;;3.23;100.00;96470.00;5054906;28;20431;-67
2023/03/13 03:45:52;;;;;;;15.90;12.83;;;;;;;3.28;100.00;96479.03;5059932;28;20225;-68
2023/03/13 03:48:19;;;;;;;14.83;11.57;;;;;;;3.29;100.00;96472.00;4988680;28;20213;-68
2023/03/13 03:50:48;;;;;;;16.20;11.73;;;;;;;3.28;100.00;96465.13;5032179;28;20636;-68
2023/03/13 03:53:16;;;;;;;13.37;10.87;;;;;;;3.31;100.00;96464.81;5029320;28;20226;-68
2023/03/13 03:55:44;;;;;;;15.33;12.63;;;;;;;3.29;100.00;96462.34;5057309;28;20268;-68
2023/03/13 03:58:12;;;;;;;13.57;12.17;;;;;;;3.27;100.00;96456.44;5055249;28;20209;-68
2023/03/13 04:00:40;;;;;;;15.23;11.87;;;;;;;3.27;100.00;96453.81;5037097;28;20865;-67
2023/03/13 04:03:07;;;;;;;15.27;11.23;;;;;;;3.33;100.00;96457.63;5008052;28;20214;-68
2023/03/13 04:05:35;;;;;;;13.57;11.37;;;;;;;3.35;100.00;96454.81;5010417;28;20310;-67
2023/03/13 04:08:04;;;;;;;16.50;12.00;;;;;;;3.37;100.00;96445.84;5051597;28;20752;-68
2023/03/13 04:10:32;;;;;;;12.30;11.20;;;;;;;3.39;100.00;96441.28;5038089;28;20502;-68
2023/03/13 04:12:59;;;;;;;13.30;11.93;;;;;;;3.41;100.00;96436.69;5032676;28;20690;-67
2023/03/13 04:15:27;;;;;;;14.10;12.30;;;;;;;3.39;100.00;96441.28;5060127;28;20692;-67
2023/03/13 04:17:55;;;;;;;14.05;12.35;;;;;;;3.33;100.00;96428.81;5028783;28;20453;-64
2023/03/13 04:20:27;;;;;;;14.13;11.33;;;;;;;3.40;100.00;96439.47;5041338;28;20304;-69
2023/03/13 04:22:55;;;;;;;14.93;11.63;;;;;;;3.40;100.00;96436.84;5030632;28;20214;-69
2023/03/13 04:25:24;;;;;;;14.43;11.90;;;;;;;3.34;100.00;96430.47;5040482;28;20551;-68
2023/03/13 04:27:51;;;;;;;12.33;11.07;;;;;;;3.31;100.00;96431.56;5063015;28;20748;-69
2023/03/13 04:30:19;;;;;;;13.97;11.97;;;;;;;3.34;100.00;96435.69;5059625;28;20213;-69
2023/03/13 04:32:47;;;;;;;16.00;11.37;;;;;;;3.33;100.00;96420.97;5038730;28;20779;-69
2023/03/13 04:35:15;;;;;;;13.13;11.80;;;;;;;3.28;100.00;96426.66;5029004;28;20224;-71
2023/03/13 04:37:42;;;;;;;12.23;10.80;;;;;;;3.26;100.00;96423.38;5016737;28;20324;-68
2023/03/13 04:40:12;;;;;;;13.60;12.00;;;;;;;3.25;100.00;96415.69;5019435;28;20213;-68
2023/03/13 04:42:41;;;;;;;11.80;10.43;;;;;;;3.27;100.00;96411.13;5060489;28;20198;-68
2023/03/13 04:45:11;;;;;;;11.40;10.30;;;;;;;3.31;100.00;96415.88;5063310;28;20878;-69
2023/03/13 04:47:39;;;;;;;11.77;10.57;;;;;;;3.35;100.00;96416.38;5059233;28;20576;-67
2023/03/13 04:50:07;;;;;;;12.50;11.23;;;;;;;3.35;100.00;96416.38;5028664;28;20227;-69
2023/03/13 04:52:34;;;;;;;12.37;11.17;;;;;;;3.36;100.00;96415.41;5018798;28;20217;-71
2023/03/13 04:55:02;;;;;;;11.60;10.60;;;;;;;3.31;100.00;96407.22;5040005;28;20213;-72
2023/03/13 04:57:30;;;;;;;12.47;10.93;;;;;;;3.29;100.00;96403.94;5042570;28;20264;-70
2023/03/13 04:59:59;;;;;;;11.93;10.47;;;;;;;3.26;100.00;96397.19;5061274;28;20201;-70
2023/03/13 05:02:26;;;;;;;12.07;11.00;;;;;;;3.26;100.00;96393.78;5060784;28;20202;-71
2023/03/13 05:04:54;;;;;;;10.93;9.87;;;;;;;3.26;100.00;96396.38;5027510;28;20210;-71
2023/03/13 05:07:22;;;;;;;15.20;11.20;;;;;;;3.16;100.00;96378.19;5050750;28;20230;-70
2023/03/13 05:09:50;;;;;;;11.20;10.00;;;;;;;3.26;100.00;96393.78;5039738;28;20206;-70
2023/03/13 05:12:17;;;;;;;10.60;9.60;;;;;;;3.28;100.00;96382.16;5043624;28;21166;-70
2023/03/13 05:14:45;;;;;;;11.30;9.90;;;;;;;3.34;100.00;96380.72;5062752;28;20855;-71
2023/03/13 05:17:14;;;;;;;15.07;10.70;;;;;;;3.37;100.00;96375.16;5064176;28;20222;-70
2023/03/13 05:19:42;;;;;;;10.03;9.07;;;;;;;3.43;100.00;96378.94;5026340;28;26115;-71
2023/03/13 05:22:09;;;;;;;12.20;10.93;;;;;;;3.46;100.00;96368.94;5058444;28;20665;-70
2023/03/13 05:24:37;;;;;;;10.70;9.30;;;;;;;3.49;100.00;96352.13;5015394;28;20202;-70
2023/03/13 05:27:08;;;;;;;10.27;9.03;;;;;;;3.55;100.00;96354.09;5061921;28;20817;-70
2023/03/13 05:29:35;;;;;;;10.70;7.80;;;;;;;3.51;100.00;96367.66;5034909;28;21067;-70
2023/03/13 05:32:03;;;;;;;10.27;8.67;;;;;;;3.46;100.00;96334.91;5059950;28;20222;-71
2023/03/13 05:34:32;;;;;;;9.57;8.10;;;;;;;3.61;100.00;96342.16;5059827;28;20207;-70
2023/03/13 05:37:00;;;;;;;10.67;8.53;;;;;;;3.61;100.00;96342.16;5029883;28;20225;-68
2023/03/13 05:39:27;;;;;;;13.53;8.97;;;;;;;3.66;100.00;96337.25;5040759;28;20232;-69
2023/03/13 05:41:55;;;;;;;9.20;8.30;;;;;;;3.69;100.00;96342.16;5040521;28;20210;-69
2023/03/13 05:44:23;;;;;;;9.83;8.93;;;;;;;3.73;100.00;96338.25;5042778;28;20965;-70
2023/03/13 05:46:50;;;;;;;9.57;8.33;;;;;;;3.77;100.00;96330.84;5058665;28;20211;-70
2023/03/13 05:49:18;;;;;;;8.70;7.93;;;;;;;3.82;100.00;96335.63;5063657;28;20206;-70
2023/03/13 05:51:47;;;;;;;11.53;7.63;;;;;;;3.81;100.00;96337.44;5026292;28;20244;-70
2023/03/13 05:54:15;;;;;;;8.50;7.70;;;;;;;3.82;100.00;96339.06;5038974;28;21422;-69
2023/03/13 05:56:43;;;;;;;8.13;7.30;;;;;;;3.83;100.00;96345.13;5034490;28;21412;-70
2023/03/13 05:59:11;;;;;;;8.60;7.17;;;;;;;3.87;100.00;96351.69;5057528;28;20297;-69
2023/03/13 06:01:39;;;;;;;8.43;6.30;;;;;;;3.91;100.00;96353.81;5007020;28;20209;-69
2023/03/13 06:04:06;;;;;;;8.03;7.23;;;;;;;3.99;100.00;96339.91;5057307;28;20206;-70
2023/03/13 06:06:34;;;;;;;8.13;6.47;;;;;;;4.04;100.00;96348.09;5010935;28;20657;-70
2023/03/13 06:09:03;;;;;;;7.23;6.53;;;;;;;4.04;100.00;96337.63;5057285;28;20210;-70
2023/03/13 06:11:31;;;;;;;6.97;6.40;;;;;;;4.09;100.00;96337.09;5056365;28;20257;-70
2023/03/13 06:13:59;;;;;;;7.20;6.57;;;;;;;4.12;100.00;96335.97;5038047;28;21221;-70
2023/03/13 06:16:26;;;;;;;7.50;6.77;;;;;;;4.12;100.00;96328.09;5035121;28;20218;-71
2023/03/13 06:18:54;;;;;;;7.30;6.70;;;;;;;4.18;100.00;96332.69;5059857;28;20343;-71
2023/03/13 06:21:22;;;;;;;7.53;6.00;;;;;;;4.22;100.00;96328.75;5016114;28;20207;-71
2023/03/13 06:23:50;;;;;;;8.17;7.10;;;;;;;4.24;100.00;96318.13;5060694;28;20205;-71
2023/03/13 06:26:19;;;;;;;6.47;5.77;;;;;;;4.24;100.00;96320.72;5058088;28;20485;-71
2023/03/13 06:28:46;;;;;;;7.83;6.47;;;;;;;4.29;100.00;96321.06;5037120;28;20213;-71
2023/03/13 06:31:14;;;;;;;6.87;6.17;;;;;;;4.24;100.00;96305.81;5035341;28;21222;-71
2023/03/13 06:33:42;;;;;;;6.07;5.50;;;;;;;4.35;100.00;96310.69;5059381;28;20213;-70
2023/03/13 06:36:10;;;;;;;5.73;5.23;;;;;;;4.26;100.00;96288.09;5048381;28;20242;-71
2023/03/13 06:38:38;;;;;;;6.33;5.70;;;;;;;4.29;100.00;96305.31;5028226;28;20426;-71
2023/03/13 06:41:06;;;;;;;6.10;5.43;;;;;;;4.34;100.00;96326.63;5057040;28;20562;-71
2023/03/13 06:43:35;;;;;;;6.00;5.50;;;;;;;4.29;100.00;96319.22;5031761;28;20511;-71
2023/03/13 06:46:04;;;;;;;5.80;5.17;;;;;;;4.38;100.00;96312.19;5021107;28;20930;-70
2023/03/13 06:48:32;;;;;;;5.53;5.03;;;;;;;4.31;100.00;96300.72;5041223;28;20207;-70
2023/03/13 06:51:00;;;;;;;6.00;5.53;;;;;;;4.31;100.00;96304.16;5053044;28;20280;-71
2023/03/13 06:53:27;;;;;;;6.83;6.13;;;;;;;4.41;100.00;96297.94;5012544;28;20198;-69
2023/03/13 06:55:55;;;;;;;6.20;5.63;;;;;;;4.46;100.00;96277.25;5058205;28;20412;-68
2023/03/13 06:58:23;;;;;;;6.60;5.53;;;;;;;4.45;100.00;96291.34;5058908;28;20289;-70
2023/03/13 07:01:05;;;;;;;5.97;5.43;;;;;;;4.53;100.00;96301.00;5034825;28;20686;-72
2023/03/13 07:03:33;;;;;;;11.73;5.70;;;;;;;4.54;100.00;96290.34;5038197;28;20456;-70
2023/03/13 07:06:01;;;;;;;5.70;5.17;;;;;;;4.63;100.00;96297.22;5057263;28;20285;-70
2023/03/13 07:08:28;;;;;;;12.13;5.50;;;;;;;4.75;100.00;96295.03;5008488;28;20682;-69
2023/03/13 07:10:59;;;;;;;5.57;5.07;;;;;;;4.80;100.00;96301.59;5060161;28;20611;-70
2023/03/13 07:13:27;;;;;;;6.37;5.70;;;;;;;4.84;100.00;96289.75;5058864;28;20717;-69
2023/03/13 07:15:55;;;;;;;6.07;5.20;;;;;;;4.77;100.00;96294.88;5032714;28;20451;-69
2023/03/13 07:18:24;;;;;;;5.77;5.27;;;;;;;4.65;100.00;96291.81;5037765;28;20617;-70
2023/03/13 07:20:53;;;;;;;5.70;5.10;;;;;;;4.68;100.00;96277.50;5056246;28;20205;-70
2023/03/13 07:23:20;;;;;;;5.10;4.70;;;;;;;4.63;100.00;96278.84;5055505;28;20201;-68
2023/03/13 07:25:53;;;;;;;5.03;4.73;;;;;;;4.63;100.00;96278.84;5020652;28;20663;-70
2023/03/13 07:28:21;;;;;;;5.10;4.60;;;;;;;4.64;100.00;96277.03;5058262;28;20685;-68
2023/03/13 07:30:49;;;;;;;6.00;5.20;;;;;;;4.58;100.00;96275.09;5035646;28;20550;-69
2023/03/13 07:33:17;;;;;;;7.13;5.17;;;;;;;4.59;100.00;96280.16;5059927;28;20742;-68
2023/03/13 07:35:49;;;;;;;4.60;4.20;;;;;;;4.58;100.00;96277.72;5035603;28;20658;-69
2023/03/13 07:38:17;;;;;;;5.37;4.57;;;;;;;4.56;100.00;96272.63;5053407;28;20210;-69
2023/03/13 07:40:49;;;;;;;6.00;5.23;;;;;;;4.56;100.00;96272.63;5028630;28;20638;-69
2023/03/13 07:43:17;;;;;;;6.50;4.63;;;;;;;4.63;100.00;96278.03;5059087;28;20198;-69
2023/03/13 07:45:51;;;;;;;4.60;4.17;;;;;;;4.58;100.00;96259.34;5019833;28;20221;-69
2023/03/13 07:48:19;;;;;;;5.07;4.67;;;;;;;4.70;100.00;96265.03;5057402;28;20197;-68
2023/03/13 07:50:47;;;;;;;4.47;4.07;;;;;;;4.63;100.00;96263.09;5035719;28;20202;-69
2023/03/13 07:53:19;;;;;;;4.87;4.47;;;;;;;4.66;100.00;96261.13;5053283;28;20226;-68
2023/03/13 07:55:55;;;;;;;5.80;4.37;;;;;;;4.69;100.00;96266.84;5031569;28;20237;-69
2023/03/13 07:58:24;;;;;;;4.83;4.43;;;;;;;4.71;100.00;96264.06;5058709;28;20210;-68
2023/03/13 08:00:51;;;;;;;4.87;4.47;;;;;;;4.76;100.00;96259.94;5035217;28;20198;-69
2023/03/13 08:03:19;;;;;;;5.80;4.70;;;;;;;4.86;100.00;96258.91;5032581;28;20563;-68
2023/03/13 08:05:47;;;;;;;4.97;4.47;;;;;;;4.87;100.00;96263.16;5036024;28;20225;-68
2023/03/13 08:08:16;;;;;;;4.80;4.50;;;;;;;4.89;100.00;96259.41;5052198;28;20222;-68
2023/03/13 08:10:44;;;;;;;6.37;4.90;;;;;;;4.94;100.00;96272.03;5005750;28;20214;-69
2023/03/13 08:13:11;;;;;;;4.70;4.30;;;;;;;4.95;100.00;96270.19;5055549;28;20222;-68
2023/03/13 08:15:39;;;;;;;4.87;4.47;;;;;;;4.97;100.00;96257.72;5050400;28;20295;-68
2023/03/13 08:18:07;;;;;;;5.13;4.80;;;;;;;4.98;100.00;96254.09;5022180;28;20207;-68
2023/03/13 08:20:34;;;;;;;4.97;4.57;;;;;;;4.96;100.00;96250.84;5052863;28;20202;-68
2023/03/13 08:23:02;;;;;;;4.83;4.20;;;;;;;5.21;100.00;96252.34;5033333;28;20460;-68
2023/03/13 08:25:32;;;;;;;4.57;4.27;;;;;;;5.38;100.00;96248.81;5055686;28;20205;-69
2023/03/13 08:27:59;;;;;;;5.57;5.10;;;;;;;5.67;100.00;96253.38;5016611;28;20237;-68
2023/03/13 08:30:29;;;;;;;5.17;4.80;;;;;;;5.89;100.00;96253.53;5055078;28;20765;-68
2023/03/13 08:32:56;;;;;;;5.00;4.50;;;;;;;6.23;100.00;96254.88;5009049;28;20939;-68
2023/03/13 08:35:24;;;;;;;5.27;4.80;;;;;;;6.10;100.00;96254.69;5054797;28;20202;-68
2023/03/13 08:37:52;;;;;;;4.80;4.40;;;;;;;6.20;100.00;96252.63;5025081;28;20268;-68
2023/03/13 08:40:19;;;;;;;5.07;4.67;;;;;;;6.21;100.00;96251.63;5052998;28;20216;-68
2023/03/13 08:42:48;;;;;;;4.90;4.50;;;;;;;6.41;100.00;96253.75;5007730;28;20211;-68
2023/03/13 08:45:16;;;;;;;3.70;3.40;;;;;;;6.53;100.00;96240.97;5051988;28;20710;-68
2023/03/13 08:47:44;;;;;;;4.20;3.80;;;;;;;6.43;100.00;96235.94;5035563;28;20226;-69
2023/03/13 08:50:12;;;;;;;4.60;4.20;;;;;;;6.49;100.00;96232.59;5050257;28;20202;-69
2023/03/13 08:52:39;;;;;;;4.23;3.93;;;;;;;6.54;100.00;96221.53;5035691;28;20229;-68
2023/03/13 08:55:08;;;;;;;3.77;3.47;;;;;;;6.68;100.00;96225.16;5055302;28;20604;-69
2023/03/13 08:57:36;;;;;;;4.80;3.90;;;;;;;6.61;100.00;96214.53;5009013;28;20260;-67
2023/03/13 09:00:06;;;;;;;5.13;3.53;;;;;;;6.59;100.00;96214.72;5057713;28;20202;-69
2023/03/13 09:02:34;;;;;;;3.60;3.20;;;;;;;6.55;100.00;96218.69;5043311;28;20208;-68
2023/03/13 09:05:02;;;;;;;4.37;3.70;;;;;;;6.65;100.00;96208.72;5058067;28;20320;-69
2023/03/13 09:07:29;;;;;;;3.53;3.23;;;;;;;6.60;100.00;96203.19;5037342;28;20431;-68
2023/03/13 09:09:57;;;;;;;4.30;3.93;;;;;;;6.92;100.00;96197.69;5056304;28;20387;-68
2023/03/13 09:12:26;;;;;;;4.93;3.43;;;;;;;6.88;100.00;96193.81;5016582;28;20561;-68
2023/03/13 09:14:58;;;;;;;3.30;3.10;;;;;;;6.92;100.00;96187.97;5033670;28;20930;-69
2023/03/13 09:17:28;;;;;;;3.53;3.10;;;;;;;6.92;100.00;96187.97;5058603;28;20222;-68
2023/03/13 09:19:55;;;;;;;3.23;3.03;;;;;;;6.86;100.00;96169.47;5030328;28;20232;-69
2023/03/13 09:22:33;;;;;;;4.93;3.07;;;;;;;6.81;100.00;96167.41;5054121;28;20303;-69
2023/03/13 09:25:01;;;;;;;4.37;3.40;;;;;;;6.83;100.00;96162.75;5036744;28;20225;-70
2023/03/13 09:27:29;;;;;;;3.23;3.03;;;;;;;6.82;100.00;96142.69;4995430;28;20218;-69
2023/03/13 09:29:56;;;;;;;3.40;3.00;;;;;;;6.95;100.00;96145.47;5057586;28;20491;-70
2023/03/13 09:32:24;;;;;;;5.87;3.53;;;;;;;7.01;100.00;96153.63;5055868;28;20621;-69
2023/03/13 09:34:54;;;;;;;3.60;3.30;;;;;;;7.29;100.00;96161.63;5034379;28;20218;-66
2023/03/13 09:37:22;;;;;;;3.90;3.37;;;;;;;7.26;100.00;96155.91;5050229;28;20230;-70
2023/03/13 09:39:49;;;;;;;4.20;3.70;;;;;;;7.38;100.00;96154.38;5035813;28;20721;-70
2023/03/13 09:42:19;;;;;;;4.00;3.60;;;;;;;7.34;100.00;96155.75;4988474;28;20662;-70
2023/03/13 09:44:50;;;;;;;3.57;3.33;;;;;;;7.37;100.00;96155.38;5057851;28;20198;-68
2023/03/13 09:47:22;;;;;;;3.30;3.10;;;;;;;7.31;100.00;96159.59;5055267;28;20641;-70
2023/03/13 09:49:54;;;;;;;3.20;3.00;;;;;;;7.36;100.00;96144.03;5030806;28;20289;-70
2023/03/13 09:52:24;;;;;;;3.83;3.57;;;;;;;7.48;100.00;96154.06;5058687;28;20716;-72
2023/03/13 09:54:55;;;;;;;4.03;3.73;;;;;;;7.55;100.00;96149.66;5048262;28;20605;-70
2023/03/13 09:57:27;;;;;;;3.80;3.50;;;;;;;7.61;100.00;96153.38;5051575;28;20313;-69
2023/03/13 09:59:58;;;;;;;3.60;3.30;;;;;;;7.56;100.00;96153.13;5006169;28;20593;-70
2023/03/13 10:02:29;;;;;;;5.83;3.60;;;;;;;7.61;100.00;96151.56;5058554;28;20206;-70
2023/03/13 10:05:08;;;;;;;3.50;3.27;;;;;;;7.73;100.00;96148.41;5032257;28;20572;-70
2023/03/13 10:07:36;;;;;;;4.13;3.83;;;;;;;7.51;100.00;96153.69;5056165;28;20479;-69
2023/03/13 10:10:07;;;;;;;4.17;3.77;;;;;;;7.50;100.00;96141.50;5032246;28;20206;-69
2023/03/13 10:12:38;;;;;;;4.07;3.77;;;;;;;7.44;100.00;96147.53;5057354;28;20207;-69
2023/03/13 10:15:21;;;;;;;8.30;4.13;;;;;;;7.48;100.00;96141.72;5010947;28;20525;-69
2023/03/13 10:17:49;;;;;;;4.50;4.20;;;;;;;7.71;100.00;96145.94;5060160;28;20202;-70
2023/03/13 10:20:23;;;;;;;5.10;4.63;;;;;;;7.94;100.00;96140.41;5035176;28;20451;-70
2023/03/13 10:22:57;;;;;;;4.83;4.50;;;;;;;8.15;100.00;96140.56;5052729;28;20198;-70
2023/03/13 10:25:29;;;;;;;4.20;3.90;;;;;;;8.21;100.00;96123.97;5054941;28;20220;-70
2023/03/13 10:27:57;;;;;;;4.47;4.07;;;;;;;8.23;100.00;96121.94;5036894;28;20206;-70
2023/03/13 10:30:26;;;;;;;5.03;4.33;;;;;;;8.36;100.00;96126.47;5011022;28;20214;-69
2023/03/13 10:32:57;;;;;;;4.00;3.80;;;;;;;8.38;100.00;96129.72;5057111;28;20591;-70
2023/03/13 10:35:32;;;;;;;3.70;3.50;;;;;;;8.43;100.00;96124.66;5036143;28;20210;-69
2023/03/13 10:38:03;;;;;;;4.17;3.87;;;;;;;8.47;100.00;96123.25;5056513;28;20400;-70
2023/03/13 10:40:31;;;;;;;4.17;3.77;;;;;;;8.48;100.00;96138.09;5053746;28;20213;-69
2023/03/13 10:43:05;;;;;;;4.33;4.10;;;;;;;8.76;100.00;96129.28;5033852;28;20206;-69
2023/03/13 10:45:35;;;;;;;3.97;3.77;;;;;;;8.94;100.00;96118.16;5010495;28;20214;-69
2023/03/13 10:48:10;;;;;;;3.77;3.50;;;;;;;9.19;100.00;96109.66;5055766;28;20198;-69
2023/03/13 10:50:42;;;;;;;3.97;3.67;;;;;;;9.28;100.00;96126.16;5031243;28;20494;-68
2023/03/13 10:53:22;;;;;;;4.37;3.87;;;;;;;9.05;100.00;96116.75;5048864;28;20229;-68
2023/03/13 10:55:53;;;;;;;4.10;3.80;;;;;;;9.03;100.00;96120.63;5058686;28;20229;-69
2023/03/13 10:58:23;;;;;;;4.33;4.00;;;;;;;9.02;100.00;96106.59;5035272;28;20588;-68
2023/03/13 11:00:51;;;;;;;3.57;3.37;;;;;;;9.10;100.00;96108.22;5009511;28;20209;-69
2023/03/13 11:03:23;;;;;;;5.03;3.77;;;;;;;9.19;100.00;96111.50;5053017;28;20210;-69
2023/03/13 11:05:59;;;;;;;3.53;3.23;;;;;;;9.38;100.00;96097.47;5049233;28;20697;-71
2023/03/13 11:08:28;;;;;;;3.67;3.37;;;;;;;9.65;100.00;96100.13;5049359;28;20430;-71
2023/03/13 11:10:59;;;;;;;3.93;3.30;;;;;;;9.61;100.00;96098.06;5052796;28;20202;-71
2023/03/13 11:13:28;;;;;;;3.80;3.60;;;;;;;9.64;100.00;96098.50;5034380;28;20811;-70
2023/03/13 11:16:14;;;;;;;3.13;2.93;;;;;;;9.56;100.00;96107.44;5015623;28;20743;-68
2023/03/13 11:18:49;;;;;;;2.90;2.80;;;;;;;9.57;100.00;96102.97;5056446;28;20202;-69
2023/03/13 11:21:24;;;;;;;3.77;3.50;;;;;;;9.66;100.00;96108.84;5028867;28;20664;-70
2023/03/13 11:24:00;;;;;;;3.83;3.30;;;;;;;9.63;100.00;96086.28;5057089;28;20198;-71
2023/03/13 11:26:33;;;;;;;3.10;3.00;;;;;;;9.75;100.00;96091.78;5058980;28;20545;-70
2023/03/13 11:29:06;;;;;;;4.00;3.70;;;;;;;9.84;100.00;96089.72;5034332;28;20230;-69
2023/03/13 11:31:36;;;;;;;3.47;3.17;;;;;;;9.79;100.00;96078.94;5057869;28;20206;-70
2023/03/13 11:34:08;;;;;;;3.57;3.23;;;;;;;9.83;100.00;96077.50;5008101;28;20229;-70
2023/03/13 11:36:42;;;;;;;3.70;3.50;;;;;;;10.08;100.00;96077.66;5053302;28;20470;-68